Time;durP1;ratioP1;P1;durP2;ratioP2;P2;SDS_P1;SDS_P2;PMS_P1;PMS_P2;Temp;Humidity;BMP_temperature;BMP_pressure;BME280_temperature;BME280_humidity;BME280_pressure;Samples;Min_cycle;Max_cycle;Signal;HPM_P1;HPM_P2
2022/12/26 09:06:57;;;;;;;2.28;1.98;;;17.40;53.90;;;;;;4962565;28;20057;-68
2022/12/26 09:09:23;;;;;;;2.55;1.92;;;17.40;53.60;;;;;;4964336;29;20039;-69
2022/12/26 09:11:49;;;;;;;2.88;1.63;;;17.50;53.70;;;;;;4964418;29;20027;-68
2022/12/26 09:14:14;;;;;;;2.75;2.33;;;17.40;53.70;;;;;;4963217;29;20075;-68
2022/12/26 09:16:42;;;;;;;1.65;1.55;;;17.50;53.70;;;;;;4962932;29;20039;-69
2022/12/26 09:19:11;;;;;;;2.38;1.92;;;17.40;53.80;;;;;;4964534;29;20051;-70
2022/12/26 09:21:37;;;;;;;3.05;2.20;;;17.40;53.80;;;;;;4964095;29;20346;-68
2022/12/26 09:24:07;;;;;;;2.35;1.65;;;17.40;54.00;;;;;;4964254;29;20030;-69
2022/12/26 09:26:33;;;;;;;3.10;2.13;;;17.40;54.00;;;;;;4964252;29;20035;-69
2022/12/26 09:28:59;;;;;;;2.97;2.08;;;17.40;53.90;;;;;;4964267;29;20042;-68
2022/12/26 09:31:27;;;;;;;2.30;1.83;;;17.40;53.90;;;;;;4964158;29;20027;-69
2022/12/26 09:33:53;;;;;;;;;;;17.40;53.90;;;;;;4963853;29;20082;-70
2022/12/26 09:36:22;;;;;;;2.28;1.83;;;17.30;53.90;;;;;;4964014;29;19918;-69
2022/12/26 09:38:48;;;;;;;2.00;1.73;;;17.40;54.10;;;;;;4964062;29;20362;-69
2022/12/26 09:41:28;;;;;;;1.98;1.80;;;17.30;53.90;;;;;;4946682;29;20247;-69
2022/12/26 09:44:16;;;;;;;1.92;1.73;;;17.40;54.00;;;;;;4963871;29;20431;-69
2022/12/26 09:47:06;;;;;;;2.08;1.83;;;17.40;54.00;;;;;;4963797;29;20093;-69
2022/12/26 09:49:38;;;;;;;2.85;1.98;;;17.30;54.00;;;;;;4963857;29;20055;-70
2022/12/26 09:52:45;;;;;;;2.17;1.90;;;17.30;54.10;;;;;;4963717;29;20031;-70
2022/12/26 09:55:34;;;;;;;3.03;2.00;;;17.30;54.10;;;;;;4963729;29;20030;-68
2022/12/26 09:58:12;;;;;;;2.17;1.90;;;17.30;54.00;;;;;;4963503;29;20061;-68
2022/12/26 10:00:49;;;;;;;1.98;1.77;;;17.40;54.10;;;;;;4963513;29;20023;-70
2022/12/26 10:03:15;;;;;;;2.25;1.88;;;17.30;54.00;;;;;;4963617;29;20043;-70
2022/12/26 10:05:51;;;;;;;1.98;1.70;;;17.30;54.00;;;;;;4963554;29;20543;-67
2022/12/26 10:08:20;;;;;;;2.08;1.88;;;17.30;54.10;;;;;;4963296;29;20082;-67
2022/12/26 10:10:56;;;;;;;2.63;1.73;;;17.30;54.10;;;;;;4963357;29;20022;-66
2022/12/26 10:13:49;;;;;;;2.38;1.58;;;17.40;53.90;;;;;;4962018;29;20031;-69
2022/12/26 10:16:33;;;;;;;2.10;1.90;;;17.30;53.90;;;;;;4963398;29;20078;-68
2022/12/26 10:19:21;;;;;;;2.17;1.85;;;17.40;53.80;;;;;;4963302;29;20023;-70
2022/12/26 10:21:58;;;;;;;2.35;1.98;;;17.40;53.70;;;;;;4963378;29;20058;-70
2022/12/26 10:24:27;;;;;;;3.90;2.00;;;17.40;53.70;;;;;;4978044;28;20268;-68
2022/12/26 10:27:00;;;;;;;2.60;1.88;;;17.40;53.70;;;;;;4963157;29;20038;-71
2022/12/26 10:29:34;;;;;;;1.98;1.63;;;17.40;53.60;;;;;;4963253;29;20260;-66
2022/12/26 10:32:05;;;;;;;2.15;1.75;;;17.40;53.70;;;;;;4963285;29;20082;-66
2022/12/26 10:34:41;;;;;;;2.35;1.80;;;17.40;53.70;;;;;;4963208;29;20023;-67
2022/12/26 10:37:29;;;;;;;1.98;1.77;;;17.50;53.70;;;;;;4962753;29;20121;-67
2022/12/26 10:40:32;;;;;;;2.28;2.08;;;17.40;53.70;;;;;;4963109;29;20045;-67
2022/12/26 10:43:31;;;;;;;1.92;1.73;;;17.40;53.70;;;;;;4962961;29;20031;-67
2022/12/26 10:46:09;;;;;;;1.90;1.58;;;17.50;53.70;;;;;;4951251;29;20102;-67
2022/12/26 10:48:35;;;;;;;2.00;1.77;;;17.50;53.60;;;;;;4962944;29;20034;-68
2022/12/26 10:51:02;;;;;;;2.13;1.85;;;17.50;53.60;;;;;;4962897;29;20035;-69
2022/12/26 10:53:27;;;;;;;2.08;1.80;;;17.50;53.60;;;;;;4962840;29;20031;-68
2022/12/26 10:55:55;;;;;;;2.15;1.85;;;17.50;53.50;;;;;;4962807;29;20027;-68
2022/12/26 10:58:24;;;;;;;1.90;1.70;;;17.50;53.50;;;;;;4962872;29;20315;-67
2022/12/26 11:00:50;;;;;;;2.55;1.90;;;17.50;53.50;;;;;;4962776;29;20035;-68
2022/12/26 11:03:18;;;;;;;2.17;1.75;;;17.50;53.50;;;;;;4962785;29;20042;-67
2022/12/26 11:05:53;;;;;;;2.70;1.65;;;17.50;53.70;;;;;;4962810;29;20050;-67
2022/12/26 11:08:22;;;;;;;2.33;1.92;;;17.50;53.60;;;;;;4962553;29;20050;-70
2022/12/26 11:11:01;;;;;;;2.50;2.17;;;17.50;53.70;;;;;;4962643;29;20086;-67
2022/12/26 11:13:34;;;;;;;3.60;2.10;;;17.50;53.70;;;;;;4962672;29;20023;-67
2022/12/26 11:16:01;;;;;;;2.78;2.03;;;17.50;53.80;;;;;;4962713;29;20242;-66
2022/12/26 11:18:47;;;;;;;2.75;2.22;;;17.50;53.80;;;;;;4962728;29;20034;-68
2022/12/26 11:21:22;;;;;;;2.53;2.00;;;17.50;53.80;;;;;;4962538;29;20046;-67
2022/12/26 11:24:07;;;;;;;1.67;1.58;;;17.50;53.70;;;;;;4962471;29;20028;-67
2022/12/26 11:26:33;;;;;;;2.10;1.77;;;17.50;53.60;;;;;;4962440;29;20046;-67
2022/12/26 11:29:17;;;;;;;2.80;2.13;;;17.50;53.70;;;;;;4962356;29;20040;-67
2022/12/26 11:31:55;;;;;;;2.78;1.95;;;17.50;53.80;;;;;;4962555;29;20330;-67
2022/12/26 11:34:33;;;;;;;3.13;2.30;;;17.50;53.80;;;;;;4962322;29;20054;-67
2022/12/26 11:37:00;;;;;;;1.80;1.67;;;17.50;53.70;;;;;;4962263;29;20042;-70
2022/12/26 11:39:33;;;;;;;2.08;1.80;;;17.50;53.80;;;;;;4962312;29;20223;-68
2022/12/26 11:41:59;;;;;;;2.15;1.88;;;17.40;53.80;;;;;;4962338;29;20026;-67
2022/12/26 11:44:34;;;;;;;2.08;1.73;;;17.50;53.70;;;;;;4962434;29;20094;-67
2022/12/26 11:47:13;;;;;;;2.70;1.77;;;17.60;53.70;;;;;;4962428;29;20031;-67
2022/12/26 11:49:40;;;;;;;2.25;1.90;;;17.60;53.70;;;;;;4962516;29;20442;-69
2022/12/26 11:52:28;;;;;;;1.75;1.63;;;17.50;53.60;;;;;;4962505;29;20027;-66
2022/12/26 11:54:54;;;;;;;2.67;2.07;;;17.50;53.60;;;;;;4962217;28;20147;-68
2022/12/26 11:57:28;;;;;;;1.92;1.70;;;17.50;53.70;;;;;;4965550;29;20035;-67
2022/12/26 12:00:12;;;;;;;1.77;1.60;;;17.50;53.80;;;;;;4965906;29;20512;-70
2022/12/26 12:02:40;;;;;;;2.22;1.98;;;17.50;53.80;;;;;;4965916;29;20023;-67
2022/12/26 12:05:14;;;;;;;2.77;2.10;;;17.50;53.70;;;;;;4965990;29;20023;-67
2022/12/26 12:07:51;;;;;;;2.08;1.85;;;17.50;53.70;;;;;;4965448;29;20376;-67
2022/12/26 12:10:41;;;;;;;2.67;2.13;;;17.50;53.60;;;;;;4965886;29;20086;-68
2022/12/26 12:13:35;;;;;;;2.25;1.73;;;17.50;53.70;;;;;;4965654;29;20037;-68
2022/12/26 12:16:37;;;;;;;2.25;2.05;;;17.50;53.70;;;;;;4965236;29;20107;-68
2022/12/26 12:19:25;;;;;;;2.17;1.98;;;17.50;53.80;;;;;;4965492;29;20027;-66
2022/12/26 12:22:09;;;;;;;2.20;1.90;;;17.50;53.80;;;;;;4965510;29;20027;-67
2022/12/26 12:25:02;;;;;;;2.13;1.90;;;17.40;53.90;;;;;;4965392;29;20043;-69
2022/12/26 12:27:49;;;;;;;2.58;1.58;;;17.40;53.90;;;;;;4965379;29;20073;-66
2022/12/26 12:30:42;;;;;;;2.25;1.98;;;17.40;53.90;;;;;;4965445;29;20027;-66
2022/12/26 12:33:26;;;;;;;2.20;1.98;;;17.40;54.00;;;;;;4965223;29;20038;-67
2022/12/26 12:36:19;;;;;;;2.30;1.75;;;17.40;53.90;;;;;;4965181;29;20031;-67
2022/12/26 12:38:54;;;;;;;2.42;1.77;;;17.40;54.00;;;;;;4965278;29;20039;-68
2022/12/26 12:41:26;;;;;;;1.83;1.55;;;17.40;53.90;;;;;;4965258;29;20049;-66
2022/12/26 12:44:33;;;;;;;3.20;2.03;;;17.40;53.90;;;;;;4965016;29;20034;-66
2022/12/26 12:47:18;;;;;;;2.42;2.15;;;17.50;53.80;;;;;;4964670;29;20019;-67
2022/12/26 12:50:18;;;;;;;2.67;2.10;;;17.40;53.80;;;;;;4965044;29;20030;-67
2022/12/26 12:52:51;;;;;;;2.17;1.92;;;17.40;53.90;;;;;;4963597;29;20031;-67
2022/12/26 12:55:32;;;;;;;2.10;1.90;;;17.50;53.90;;;;;;4947562;29;20027;-67
2022/12/26 12:58:16;;;;;;;2.25;1.80;;;17.50;53.80;;;;;;4964723;29;20037;-68
2022/12/26 13:00:51;;;;;;;2.67;1.65;;;17.60;53.70;;;;;;4963426;29;20126;-67
2022/12/26 13:03:34;;;;;;;2.30;1.75;;;17.60;53.70;;;;;;4979468;28;20431;-70
2022/12/26 13:06:10;;;;;;;1.90;1.63;;;17.60;53.60;;;;;;4963515;29;20019;-66
2022/12/26 13:08:43;;;;;;;3.22;2.38;;;17.60;53.70;;;;;;4963606;28;20055;-66
2022/12/26 13:11:29;;;;;;;2.03;1.83;;;17.60;53.70;;;;;;4964817;29;20031;-67
2022/12/26 13:14:10;;;;;;;2.78;2.20;;;17.50;53.70;;;;;;4964343;29;20043;-66
2022/12/26 13:16:43;;;;;;;3.40;2.10;;;17.50;53.80;;;;;;4964513;29;20038;-67
2022/12/26 13:19:21;;;;;;;1.98;1.70;;;17.40;54.00;;;;;;4964563;29;20031;-69
2022/12/26 13:21:49;;;;;;;2.10;1.83;;;17.40;54.20;;;;;;4964399;29;20089;-68
2022/12/26 13:24:44;;;;;;;2.10;1.73;;;17.30;54.30;;;;;;4964251;29;20147;-66
2022/12/26 13:27:23;;;;;;;2.90;1.80;;;17.30;54.30;;;;;;4964371;29;20067;-66
2022/12/26 13:29:49;;;;;;;2.42;2.00;;;17.30;54.40;;;;;;4964359;29;20282;-66
2022/12/26 13:32:27;;;;;;;2.85;2.38;;;17.40;54.20;;;;;;4964251;29;20062;-69
2022/12/26 13:34:55;;;;;;;2.33;1.98;;;17.40;54.20;;;;;;4962827;29;20038;-68
2022/12/26 13:37:55;;;;;;;1.92;1.73;;;17.50;54.10;;;;;;4963874;29;20069;-66
2022/12/26 13:40:27;;;;;;;2.80;2.10;;;17.50;53.90;;;;;;4962326;29;20015;-67
2022/12/26 13:46:35;;;;;;;2.05;1.85;;;17.80;53.30;;;;;;4942473;29;20387;-66
2022/12/26 13:49:02;;;;;;;2.83;2.05;;;17.80;53.40;;;;;;4962665;29;20349;-68
2022/12/26 13:51:49;;;;;;;2.75;1.95;;;17.70;53.60;;;;;;4963805;29;20063;-69
2022/12/26 13:54:15;;;;;;;2.70;2.13;;;17.70;53.70;;;;;;4963917;29;20365;-67
2022/12/26 13:56:41;;;;;;;2.83;2.33;;;17.60;53.80;;;;;;4963700;29;20326;-68
2022/12/26 13:59:26;;;;;;;2.42;1.63;;;17.60;53.80;;;;;;4963876;29;20027;-68
2022/12/26 14:02:07;;;;;;;2.65;2.08;;;17.60;54.00;;;;;;4978453;28;20019;-64
2022/12/26 14:05:09;;;;;;;2.30;2.10;;;17.50;54.10;;;;;;4963651;29;20023;-68
2022/12/26 14:07:37;;;;;;;3.05;2.10;;;17.40;54.10;;;;;;4961739;29;20055;-66
2022/12/26 14:10:28;;;;;;;3.22;2.72;;;17.40;54.20;;;;;;4963507;29;20035;-70
2022/12/26 14:12:59;;;;;;;3.42;2.72;;;17.40;54.40;;;;;;4962304;29;20097;-68
2022/12/26 14:15:49;;;;;;;2.58;2.10;;;17.40;54.50;;;;;;4963306;29;20027;-68
2022/12/26 14:18:32;;;;;;;2.72;2.30;;;17.30;54.40;;;;;;4961807;28;20424;-66
2022/12/26 14:21:28;;;;;;;2.63;2.20;;;17.30;54.50;;;;;;4963397;29;20098;-66
2022/12/26 14:24:11;;;;;;;2.78;2.20;;;17.30;54.40;;;;;;4961957;29;20039;-67
2022/12/26 14:26:48;;;;;;;2.97;2.20;;;17.30;54.50;;;;;;4961913;29;20019;-66
2022/12/26 14:29:20;;;;;;;2.67;2.30;;;17.30;54.40;;;;;;4962126;29;20102;-67
2022/12/26 14:32:14;;;;;;;3.65;2.72;;;17.30;54.50;;;;;;4963169;29;20046;-67
2022/12/26 14:34:46;;;;;;;2.42;1.98;;;17.30;54.40;;;;;;4962129;29;20102;-67
2022/12/26 14:37:24;;;;;;;2.30;2.08;;;17.30;54.30;;;;;;4963193;29;20023;-67
2022/12/26 14:40:02;;;;;;;3.22;2.10;;;17.30;54.40;;;;;;4963364;29;20311;-68
2022/12/26 14:45:29;;;;;;;2.72;2.30;;;17.30;54.40;;;;;;4963113;29;20051;-67
2022/12/26 14:47:55;;;;;;;2.90;2.05;;;17.20;54.50;;;;;;4961715;29;20031;-67
2022/12/26 14:50:49;;;;;;;2.15;1.73;;;17.20;54.60;;;;;;4977800;28;20103;-68
2022/12/26 14:53:33;;;;;;;3.35;2.28;;;17.20;54.60;;;;;;4977758;28;20027;-68
2022/12/26 14:56:09;;;;;;;2.95;2.28;;;17.20;54.50;;;;;;4962856;29;20027;-66
2022/12/26 14:58:38;;;;;;;2.55;2.28;;;17.30;54.50;;;;;;4962761;29;20093;-69
2022/12/26 15:01:12;;;;;;;2.40;2.10;;;17.40;54.30;;;;;;4962688;29;20041;-69
2022/12/26 15:04:25;;;;;;;3.08;2.75;;;17.40;54.00;;;;;;4962671;29;20019;-67
2022/12/26 15:07:20;;;;;;;2.88;2.28;;;17.50;53.80;;;;;;4940815;29;20234;-66
2022/12/26 15:10:11;;;;;;;3.53;2.70;;;17.60;53.80;;;;;;4962841;29;20039;-65
2022/12/26 15:12:49;;;;;;;3.13;2.50;;;17.60;53.80;;;;;;4962654;29;20309;-68
2022/12/26 15:15:41;;;;;;;2.47;2.28;;;17.60;53.70;;;;;;4962576;29;20031;-70
2022/12/26 15:18:58;;;;;;;2.38;1.83;;;17.60;53.70;;;;;;4962573;29;20098;-67
2022/12/26 15:21:37;;;;;;;2.42;1.80;;;17.60;53.80;;;;;;4922284;29;20031;-70
2022/12/26 15:24:31;;;;;;;3.15;2.22;;;17.50;54.00;;;;;;4922491;29;20316;-68
2022/12/26 15:27:15;;;;;;;3.08;1.92;;;17.50;54.20;;;;;;4952478;29;20035;-68
2022/12/26 15:29:50;;;;;;;2.90;1.95;;;17.40;54.20;;;;;;4962580;28;20090;-67
2022/12/26 15:32:15;;;;;;;3.78;2.25;;;17.40;54.10;;;;;;4965895;29;20263;-70
2022/12/26 15:35:00;;;;;;;3.10;2.20;;;17.50;54.10;;;;;;4966353;29;20050;-68
2022/12/26 15:38:01;;;;;;;2.67;2.13;;;17.40;54.00;;;;;;4966306;29;20042;-68
2022/12/26 15:40:31;;;;;;;3.45;2.85;;;17.40;54.10;;;;;;4966260;29;20075;-67
2022/12/26 15:43:31;;;;;;;2.97;2.67;;;17.40;54.10;;;;;;4966230;29;20019;-68
2022/12/26 15:45:56;;;;;;;3.78;2.17;;;17.40;54.10;;;;;;4966114;29;20063;-68
2022/12/26 15:48:37;;;;;;;3.10;2.30;;;17.30;54.20;;;;;;4966072;29;20031;-68
2022/12/26 15:51:19;;;;;;;3.70;2.85;;;17.30;54.30;;;;;;4966053;29;20050;-68
2022/12/26 15:54:19;;;;;;;3.17;2.55;;;17.30;54.40;;;;;;4965854;29;20090;-67
2022/12/26 15:56:51;;;;;;;2.88;2.40;;;17.30;54.50;;;;;;4965868;29;20038;-68
2022/12/26 15:59:28;;;;;;;3.38;2.65;;;17.20;54.70;;;;;;4965779;29;20027;-67
2022/12/26 16:01:55;;;;;;;3.70;2.80;;;17.20;54.90;;;;;;4965967;29;20566;-67
2022/12/26 16:04:51;;;;;;;4.88;3.00;;;17.10;54.80;;;;;;4965884;29;20267;-68
2022/12/26 16:07:26;;;;;;;3.03;2.60;;;17.20;54.70;;;;;;4965470;29;20291;-68
2022/12/26 16:09:56;;;;;;;4.97;2.88;;;17.10;54.80;;;;;;4965897;29;20027;-68
2022/12/26 16:12:26;;;;;;;3.00;2.67;;;17.10;55.00;;;;;;4965625;29;20035;-67
2022/12/26 16:15:09;;;;;;;3.50;2.78;;;17.00;55.00;;;;;;4965688;29;20027;-69
2022/12/26 16:17:37;;;;;;;3.80;3.00;;;17.10;55.00;;;;;;4965619;29;20029;-68
2022/12/26 16:23:20;;;;;;;2.55;2.25;;;17.00;55.00;;;;;;4965387;29;20082;-69
2022/12/26 16:25:55;;;;;;;3.72;2.50;;;17.20;54.90;;;;;;4965513;29;20038;-69
2022/12/26 16:28:30;;;;;;;4.13;2.78;;;17.20;54.50;;;;;;4965392;29;20215;-68
2022/12/26 16:30:57;;;;;;;2.60;2.40;;;17.30;54.50;;;;;;4965509;29;20019;-68
2022/12/26 16:33:22;;;;;;;2.97;2.42;;;17.40;54.30;;;;;;4965269;29;20055;-67
2022/12/26 16:35:50;;;;;;;2.58;2.20;;;17.40;54.00;;;;;;4965308;29;20042;-67
2022/12/26 16:38:21;;;;;;;3.08;2.33;;;17.50;53.90;;;;;;4965180;29;20034;-70
2022/12/26 16:40:49;;;;;;;2.95;2.40;;;17.50;53.80;;;;;;4965329;29;20074;-68
2022/12/26 16:43:26;;;;;;;3.70;2.70;;;17.50;53.90;;;;;;4965042;28;20027;-68
2022/12/26 16:45:57;;;;;;;3.85;2.88;;;17.50;54.10;;;;;;4965066;29;20075;-69
2022/12/26 16:48:26;;;;;;;2.95;2.35;;;17.40;54.00;;;;;;4965163;29;20015;-68
2022/12/26 16:51:01;;;;;;;4.85;3.28;;;17.40;54.10;;;;;;4965117;29;20023;-68
2022/12/26 16:53:35;;;;;;;4.07;3.22;;;17.40;54.30;;;;;;4965036;29;20062;-70
2022/12/26 16:56:25;;;;;;;3.40;2.65;;;17.30;54.30;;;;;;4964862;29;20027;-69
2022/12/26 16:59:05;;;;;;;4.93;3.15;;;17.30;54.40;;;;;;4964952;29;20379;-67
2022/12/26 17:01:32;;;;;;;3.38;2.92;;;17.30;54.70;;;;;;4964989;29;20090;-67
2022/12/26 17:04:03;;;;;;;3.55;2.75;;;17.20;54.60;;;;;;4964809;29;20132;-68
2022/12/26 17:06:35;;;;;;;3.03;2.67;;;17.20;54.70;;;;;;4964428;29;20349;-68
2022/12/26 17:09:13;;;;;;;3.33;2.63;;;17.10;54.90;;;;;;4964731;29;20234;-69
2022/12/26 17:11:53;;;;;;;3.83;2.60;;;17.10;55.10;;;;;;4964731;29;20073;-69
2022/12/26 17:14:25;;;;;;;4.15;2.85;;;17.10;55.10;;;;;;4964670;29;20312;-67
2022/12/26 17:16:59;;;;;;;3.65;2.17;;;17.10;55.20;;;;;;4964539;29;20027;-68
2022/12/26 17:19:31;;;;;;;3.60;2.85;;;17.10;55.10;;;;;;4964614;29;20033;-68
2022/12/26 17:22:26;;;;;;;3.05;2.60;;;17.00;55.20;;;;;;4964548;29;20031;-68
2022/12/26 17:25:26;;;;;;;17.80;3.60;;;17.00;55.10;;;;;;4964486;29;20062;-71
2022/12/26 17:28:07;;;;;;;18.08;4.32;;;17.00;54.80;;;;;;4964605;29;20031;-63
2022/12/26 17:30:38;;;;;;;12.13;3.63;;;16.90;55.40;;;;;;4964471;29;20035;-62
2022/12/26 17:33:14;;;;;;;16.90;3.70;;;17.00;55.40;;;;;;4964299;29;20027;-66
2022/12/26 17:35:41;;;;;;;11.00;3.38;;;17.00;55.40;;;;;;4964024;29;20050;-62
2022/12/26 17:38:24;;;;;;;9.25;3.33;;;17.00;55.30;;;;;;4962519;29;20058;-62
2022/12/26 17:40:59;;;;;;;23.63;4.82;;;17.10;55.20;;;;;;4963962;29;20031;-62
2022/12/26 17:43:37;;;;;;;9.13;2.92;;;16.90;54.10;;;;;;4963949;29;20031;-64
2022/12/26 17:46:04;;;;;;;10.18;3.00;;;16.80;55.30;;;;;;4963832;29;20030;-64
2022/12/26 17:48:31;;;;;;;3.90;3.08;;;16.90;55.30;;;;;;4963819;29;20031;-62
2022/12/26 17:51:03;;;;;;;7.40;2.78;;;17.00;55.40;;;;;;4963725;29;20211;-62
2022/12/26 17:53:35;;;;;;;5.88;2.58;;;17.00;55.30;;;;;;4963003;28;20023;-62
2022/12/26 17:56:19;;;;;;;5.68;3.05;;;17.10;55.20;;;;;;4946253;29;20196;-63
2022/12/26 17:58:46;;;;;;;9.40;2.80;;;17.20;55.10;;;;;;4963447;29;20043;-62
2022/12/26 18:01:12;;;;;;;4.85;3.03;;;17.30;54.80;;;;;;4963466;29;20030;-64
2022/12/26 18:03:38;;;;;;;3.78;2.65;;;17.30;54.50;;;;;;4963774;29;20047;-62
2022/12/26 18:06:04;;;;;;;5.63;3.03;;;17.40;54.40;;;;;;4963539;29;20034;-63
2022/12/26 18:08:31;;;;;;;4.50;3.17;;;17.40;54.30;;;;;;4963267;29;20051;-63
2022/12/26 18:10:58;;;;;;;5.07;3.03;;;17.40;54.20;;;;;;4963396;29;20023;-63
2022/12/26 18:13:24;;;;;;;6.90;2.63;;;17.40;54.30;;;;;;4963291;29;20027;-63
2022/12/26 18:15:53;;;;;;;9.75;3.33;;;17.30;54.50;;;;;;4963313;29;20030;-62
2022/12/26 18:18:38;;;;;;;3.85;2.42;;;17.30;54.60;;;;;;4963261;29;20043;-63
2022/12/26 18:21:06;;;;;;;4.47;3.13;;;17.30;54.70;;;;;;4963132;29;20058;-64
2022/12/26 18:23:32;;;;;;;5.07;2.72;;;17.30;55.40;;;;;;4963269;29;20036;-62
2022/12/26 18:26:05;;;;;;;8.15;3.03;;;17.20;54.90;;;;;;4963142;29;20023;-63
2022/12/26 18:28:32;;;;;;;6.03;2.60;;;17.10;55.10;;;;;;4963063;29;20019;-63
2022/12/26 18:30:57;;;;;;;5.68;3.22;;;17.00;55.20;;;;;;4963018;29;20047;-62
2022/12/26 18:33:24;;;;;;;6.03;2.70;;;17.00;55.40;;;;;;4962989;29;20042;-62
2022/12/26 18:35:50;;;;;;;5.18;2.65;;;17.00;55.60;;;;;;4962882;29;20051;-63
2022/12/26 18:38:18;;;;;;;7.68;2.80;;;16.90;55.70;;;;;;4962801;29;20031;-63
2022/12/26 18:40:53;;;;;;;9.60;2.75;;;16.90;55.80;;;;;;4962919;29;20222;-64
2022/12/26 18:43:19;;;;;;;5.53;2.30;;;16.80;55.80;;;;;;4962843;29;20051;-63
2022/12/26 18:45:45;;;;;;;3.55;2.72;;;16.80;55.80;;;;;;4962747;29;20074;-63
2022/12/26 18:48:15;;;;;;;6.38;3.10;;;16.80;55.80;;;;;;4962854;29;20027;-62
2022/12/26 18:50:42;;;;;;;6.05;3.15;;;16.90;55.60;;;;;;4962790;29;20069;-63
2022/12/26 18:53:10;;;;;;;4.35;2.78;;;16.90;55.60;;;;;;4962782;29;20311;-63
2022/12/26 18:55:37;;;;;;;6.65;3.13;;;16.90;55.50;;;;;;4962805;29;20086;-62
2022/12/26 18:58:03;;;;;;;6.53;2.80;;;16.90;55.40;;;;;;4962674;29;20035;-63
2022/12/26 19:00:29;;;;;;;4.78;3.17;;;16.90;55.30;;;;;;4962709;29;20031;-62
2022/12/26 19:02:55;;;;;;;4.55;2.95;;;17.00;55.30;;;;;;4962667;29;20027;-63
2022/12/26 19:05:27;;;;;;;4.78;2.75;;;16.90;55.30;;;;;;4961659;29;20070;-63
2022/12/26 19:07:54;;;;;;;6.30;3.08;;;16.90;55.30;;;;;;4962485;29;20062;-62
2022/12/26 19:10:25;;;;;;;4.93;3.22;;;16.90;55.20;;;;;;4962485;29;20087;-62
2022/12/26 19:12:51;;;;;;;4.90;2.83;;;16.90;55.30;;;;;;4962564;29;20039;-62
2022/12/26 19:15:17;;;;;;;4.93;3.08;;;16.90;55.20;;;;;;4962472;29;20035;-62
2022/12/26 19:17:43;;;;;;;3.20;2.70;;;17.00;55.20;;;;;;4962328;29;20023;-62
2022/12/26 19:20:21;;;;;;;3.92;2.65;;;17.10;55.00;;;;;;4962436;29;20267;-62
2022/12/26 19:22:48;;;;;;;4.10;3.17;;;17.20;54.80;;;;;;4962511;29;20039;-62
2022/12/26 19:25:18;;;;;;;4.43;2.83;;;17.30;54.60;;;;;;4962487;29;20349;-62
2022/12/26 19:27:44;;;;;;;4.15;2.97;;;17.30;54.40;;;;;;4962278;29;20027;-62
2022/12/26 19:30:11;;;;;;;8.43;3.35;;;17.40;54.20;;;;;;4961100;29;20031;-63
2022/12/26 19:32:37;;;;;;;5.88;3.00;;;17.40;54.00;;;;;;4962430;29;20031;-62
2022/12/26 19:35:03;;;;;;;4.65;2.80;;;17.50;53.90;;;;;;4962336;29;20027;-63
2022/12/26 19:37:29;;;;;;;2.80;2.40;;;17.60;53.80;;;;;;4962192;29;20026;-63
2022/12/26 19:39:55;;;;;;;6.28;3.00;;;17.60;53.70;;;;;;4962325;29;20047;-62
2022/12/26 19:42:21;;;;;;;5.50;2.80;;;17.60;53.60;;;;;;4962316;29;20287;-63
2022/12/26 19:44:48;;;;;;;3.05;2.20;;;17.60;53.60;;;;;;4962302;29;20058;-64
2022/12/26 19:47:13;;;;;;;3.15;2.33;;;17.60;53.80;;;;;;4962281;29;20046;-62
2022/12/26 19:49:43;;;;;;;5.45;3.13;;;17.50;54.00;;;;;;4962296;29;20019;-63
2022/12/26 19:52:10;;;;;;;4.20;3.17;;;17.40;54.20;;;;;;4962276;29;20350;-63
2022/12/26 19:54:36;;;;;;;4.10;2.97;;;17.40;54.40;;;;;;4962234;29;20031;-64
2022/12/26 19:57:02;;;;;;;3.75;3.00;;;17.30;54.70;;;;;;4962141;29;20033;-62
2022/12/26 19:59:30;;;;;;;6.03;3.35;;;17.20;55.00;;;;;;4962096;29;20027;-63
2022/12/26 20:01:56;;;;;;;3.55;2.67;;;17.10;55.10;;;;;;4962079;29;20035;-63
2022/12/26 20:04:22;;;;;;;4.90;3.30;;;17.10;55.30;;;;;;4962019;29;20074;-63
2022/12/26 20:06:47;;;;;;;4.90;2.97;;;17.10;55.40;;;;;;4962003;29;20118;-64
2022/12/26 20:09:17;;;;;;;3.78;2.58;;;17.00;55.40;;;;;;4962095;29;20027;-63
2022/12/26 20:11:46;;;;;;;4.28;3.10;;;17.00;55.60;;;;;;4961872;29;20094;-62
2022/12/26 20:14:15;;;;;;;4.15;3.15;;;16.90;55.50;;;;;;4962001;29;20027;-64
2022/12/26 20:16:41;;;;;;;3.67;2.88;;;16.90;55.70;;;;;;4962827;28;20035;-63
2022/12/26 20:19:07;;;;;;;3.88;2.72;;;16.90;55.60;;;;;;4965287;29;20022;-63
2022/12/26 20:21:33;;;;;;;4.80;2.75;;;16.90;55.70;;;;;;4965393;29;20086;-63
2022/12/26 20:24:00;;;;;;;3.97;2.67;;;16.90;55.80;;;;;;4965435;29;20038;-63
2022/12/26 20:26:27;;;;;;;4.18;2.95;;;16.90;55.80;;;;;;4965332;29;20031;-63
2022/12/26 20:29:00;;;;;;;3.13;2.70;;;16.80;55.70;;;;;;4965307;29;20054;-63
2022/12/26 20:31:26;;;;;;;3.22;2.63;;;16.80;55.60;;;;;;4965514;29;20030;-62
2022/12/26 20:33:53;;;;;;;3.38;2.67;;;16.90;55.60;;;;;;4965397;29;20219;-63
2022/12/26 20:36:21;;;;;;;3.70;2.60;;;16.90;55.50;;;;;;4965001;29;20028;-63
2022/12/26 20:38:50;;;;;;;3.33;2.67;;;17.00;55.20;;;;;;4965181;29;20188;-63
2022/12/26 20:41:16;;;;;;;;;;;17.10;55.00;;;;;;4965577;29;20027;-63
2022/12/26 20:43:42;;;;;;;3.55;2.83;;;17.20;54.80;;;;;;4965225;29;19953;-63
2022/12/26 20:46:13;;;;;;;4.68;2.90;;;17.30;54.60;;;;;;4965280;29;20023;-63
2022/12/26 20:48:39;;;;;;;3.95;2.67;;;17.40;54.30;;;;;;4965372;29;20027;-63
2022/12/26 20:51:09;;;;;;;2.67;2.42;;;17.50;54.00;;;;;;4965133;29;20031;-62
2022/12/26 20:53:35;;;;;;;7.32;2.45;;;17.60;54.00;;;;;;4965036;29;20090;-64
2022/12/26 20:56:01;;;;;;;3.60;2.50;;;17.50;53.90;;;;;;4964882;29;20023;-63
2022/12/26 20:58:29;;;;;;;8.82;3.42;;;17.50;54.00;;;;;;4964802;29;20027;-63
2022/12/26 21:00:57;;;;;;;3.88;2.78;;;17.40;54.20;;;;;;4964835;29;20038;-63
2022/12/26 21:03:23;;;;;;;3.40;2.95;;;17.40;54.50;;;;;;4964837;29;20035;-62
2022/12/26 21:05:52;;;;;;;3.45;2.22;;;17.30;54.50;;;;;;4964950;29;20074;-63
2022/12/26 21:08:18;;;;;;;3.67;2.72;;;17.30;54.70;;;;;;4964442;29;20059;-63
2022/12/26 21:10:44;;;;;;;3.65;2.67;;;17.20;54.80;;;;;;4964670;29;20047;-63
2022/12/26 21:13:10;;;;;;;3.60;2.67;;;17.20;54.90;;;;;;4964610;29;20034;-63
2022/12/26 21:15:36;;;;;;;4.28;2.85;;;17.20;55.00;;;;;;4964535;29;20023;-63
2022/12/26 21:18:03;;;;;;;4.13;3.33;;;17.10;55.10;;;;;;4964461;29;20343;-63
2022/12/26 21:20:30;;;;;;;3.72;2.85;;;17.10;55.90;;;;;;4964469;29;20082;-63
2022/12/26 21:22:56;;;;;;;3.88;2.97;;;17.10;55.30;;;;;;4964143;29;20098;-63
2022/12/26 21:25:21;;;;;;;3.70;3.25;;;17.00;55.30;;;;;;4964261;29;20015;-62
2022/12/26 21:27:47;;;;;;;5.38;2.75;;;17.00;55.40;;;;;;4963769;28;20039;-63
2022/12/26 21:30:14;;;;;;;3.85;2.78;;;17.00;55.50;;;;;;4963884;29;20061;-63
2022/12/26 21:32:40;;;;;;;3.47;2.50;;;17.00;55.50;;;;;;4964227;29;20035;-62
2022/12/26 21:35:08;;;;;;;3.95;2.58;;;16.90;55.60;;;;;;4964219;29;20050;-63
2022/12/26 21:37:50;;;;;;;3.63;2.85;;;16.90;55.70;;;;;;4964109;29;20055;-63
2022/12/26 21:40:18;;;;;;;3.35;2.63;;;16.90;55.60;;;;;;4964149;29;20031;-63
2022/12/26 21:42:44;;;;;;;4.53;2.65;;;16.90;55.70;;;;;;4964132;29;20023;-64
2022/12/26 21:45:10;;;;;;;3.90;3.05;;;16.90;55.70;;;;;;4964009;29;20035;-63
2022/12/26 21:47:36;;;;;;;3.63;2.97;;;16.90;55.60;;;;;;4963941;29;20035;-62
2022/12/26 21:50:02;;;;;;;5.43;2.70;;;16.90;55.60;;;;;;4963882;29;20027;-62
2022/12/26 21:52:28;;;;;;;3.72;2.75;;;16.90;55.40;;;;;;4963919;29;20357;-63
2022/12/26 21:57:38;;;;;;;4.78;2.65;;;17.10;55.10;;;;;;4963792;29;20146;-63
2022/12/26 22:00:04;;;;;;;4.38;2.80;;;17.10;54.90;;;;;;4963699;29;20331;-63
2022/12/26 22:05:19;;;;;;;3.40;2.55;;;17.30;54.60;;;;;;4963666;29;20070;-63
2022/12/26 22:07:46;;;;;;;3.03;2.55;;;17.30;54.60;;;;;;4963451;29;20110;-63
2022/12/26 22:12:56;;;;;;;3.15;2.35;;;17.30;54.50;;;;;;4963864;29;20516;-62
2022/12/26 22:18:07;;;;;;;3.92;2.63;;;17.20;54.60;;;;;;4963231;29;20054;-63
2022/12/26 22:20:34;;;;;;;4.57;2.90;;;17.20;54.70;;;;;;4963339;29;20042;-62
2022/12/26 22:23:00;;;;;;;3.33;2.67;;;17.20;54.80;;;;;;4963291;29;20019;-63
2022/12/26 22:25:26;;;;;;;3.78;2.95;;;17.10;54.90;;;;;;4963364;29;20039;-62
2022/12/26 22:27:52;;;;;;;3.97;2.45;;;17.10;55.00;;;;;;4963289;29;20035;-63
2022/12/26 22:30:18;;;;;;;3.15;2.45;;;17.10;55.00;;;;;;4963161;29;20215;-62
2022/12/26 22:32:44;;;;;;;2.83;2.42;;;17.00;55.10;;;;;;4963205;29;20078;-62
2022/12/26 22:35:09;;;;;;;2.92;2.60;;;17.00;55.20;;;;;;4963175;29;20346;-63
2022/12/26 22:37:35;;;;;;;3.08;2.75;;;16.90;55.30;;;;;;4963060;29;20023;-63
2022/12/26 22:40:02;;;;;;;3.55;2.47;;;16.90;55.50;;;;;;4961636;28;20038;-63
2022/12/26 22:42:28;;;;;;;3.38;2.50;;;16.90;55.70;;;;;;4963038;29;20019;-63
2022/12/26 22:44:56;;;;;;;3.30;2.40;;;16.80;55.80;;;;;;4962938;29;20097;-62
2022/12/26 22:47:22;;;;;;;4.78;2.70;;;16.80;55.90;;;;;;4963051;29;20031;-63
2022/12/26 22:49:48;;;;;;;2.67;2.42;;;16.80;55.90;;;;;;4962949;29;20015;-63